createdAt,value
2017-12-31T00:00:27.694Z,14.7
2017-12-31T00:01:27.892Z,14.7
2017-12-31T00:02:28.663Z,10.8
2017-12-31T00:03:28.004Z,10.8
2017-12-31T00:05:27.744Z,9.1
2017-12-31T00:06:27.790Z,9.1
2017-12-31T00:07:28.262Z,9.4
2017-12-31T00:08:28.514Z,9.4
2017-12-31T00:09:28.034Z,10.8
2017-12-31T00:10:28.041Z,10.8
2017-12-31T00:11:28.552Z,10.8
2017-12-31T00:12:28.235Z,11.3
2017-12-31T00:13:25.575Z,11.3
2017-12-31T00:14:28.627Z,13.0
2017-12-31T00:15:28.488Z,13.0
2017-12-31T00:16:28.272Z,13.0
2017-12-31T00:17:25.737Z,8.6
2017-12-31T00:18:27.530Z,8.6
2017-12-31T00:19:28.035Z,8.3
2017-12-31T00:20:25.679Z,8.3
2017-12-31T00:21:27.732Z,8.3
2017-12-31T00:22:27.793Z,10.0
2017-12-31T00:23:27.742Z,10.0
2017-12-31T00:24:25.720Z,10.0
2017-12-31T00:25:27.589Z,10.8
2017-12-31T00:26:27.782Z,10.8
2017-12-31T00:27:27.768Z,8.3
2017-12-31T00:28:27.779Z,8.3
2017-12-31T00:29:27.812Z,8.3
2017-12-31T00:30:25.747Z,40.5
2017-12-31T00:31:27.774Z,40.5
2017-12-31T00:32:27.715Z,11.3
2017-12-31T00:33:25.555Z,11.3
2017-12-31T00:35:27.759Z,12.5
2017-12-31T00:36:27.574Z,12.5
2017-12-31T00:37:27.805Z,10.8
2017-12-31T00:38:27.947Z,10.8
2017-12-31T00:39:27.764Z,10.8
2017-12-31T00:40:28.050Z,10.8
2017-12-31T00:41:25.861Z,10.8
2017-12-31T00:42:27.767Z,14.1
2017-12-31T00:43:27.592Z,14.1
2017-12-31T00:44:27.777Z,14.1
2017-12-31T00:45:27.745Z,10.2
2017-12-31T00:46:30.186Z,10.2
2017-12-31T00:47:25.568Z,12.7
2017-12-31T00:48:28.075Z,12.7
2017-12-31T00:49:27.865Z,12.7
2017-12-31T00:50:26.158Z,11.6
2017-12-31T00:51:27.432Z,11.6
2017-12-31T00:52:27.671Z,9.4
2017-12-31T00:53:27.820Z,9.4
2017-12-31T00:54:28.133Z,9.4
2017-12-31T00:55:27.857Z,10.8
2017-12-31T00:56:25.827Z,10.8
2017-12-31T00:57:27.657Z,10.8
2017-12-31T00:58:28.145Z,12.2
2017-12-31T00:59:27.672Z,12.2
2017-12-31T01:00:26.103Z,13.0
2017-12-31T01:01:28.162Z,13.0
2017-12-31T01:02:27.831Z,13.0
2017-12-31T01:03:25.808Z,46.3
2017-12-31T01:04:26.124Z,46.3
2017-12-31T01:05:25.823Z,10.8
2017-12-31T01:06:25.767Z,10.8
2017-12-31T01:07:27.853Z,10.8
2017-12-31T01:08:25.889Z,43.3
2017-12-31T01:09:26.096Z,43.3
2017-12-31T01:10:25.636Z,12.5
2017-12-31T01:12:25.621Z,12.5
2017-12-31T01:13:25.884Z,13.6
2017-12-31T01:14:26.148Z,13.6
2017-12-31T01:15:25.955Z,11.9
2017-12-31T01:17:25.850Z,11.9
2017-12-31T01:18:25.688Z,62.2
2017-12-31T01:19:25.632Z,62.2
2017-12-31T01:20:25.860Z,62.2
2017-12-31T01:21:26.106Z,62.2
2017-12-31T01:22:25.844Z,62.2
2017-12-31T01:23:25.804Z,16.6
2017-12-31T01:24:25.618Z,16.6
2017-12-31T01:25:26.149Z,16.6
2017-12-31T01:27:25.830Z,13.6
2017-12-31T01:28:25.620Z,16.1
2017-12-31T01:29:25.859Z,16.1
2017-12-31T01:30:25.861Z,16.1
2017-12-31T01:31:26.098Z,11.9
2017-12-31T01:32:25.617Z,11.9
2017-12-31T01:33:26.142Z,11.1
2017-12-31T01:34:25.636Z,11.1
2017-12-31T01:35:25.837Z,11.1
2017-12-31T01:36:25.896Z,13.3
2017-12-31T01:37:25.895Z,13.3
2017-12-31T01:38:25.614Z,20.5
2017-12-31T01:39:25.656Z,20.5
2017-12-31T01:40:26.111Z,20.5
2017-12-31T01:41:26.160Z,14.7
2017-12-31T01:42:25.894Z,14.7
2017-12-31T01:43:26.151Z,73.6
2017-12-31T01:44:25.916Z,73.6
2017-12-31T01:45:25.660Z,73.6
2017-12-31T01:46:26.188Z,14.4
2017-12-31T01:47:25.859Z,14.4
2017-12-31T01:48:25.690Z,16.6
2017-12-31T01:49:25.896Z,16.6
2017-12-31T01:50:25.849Z,16.6
2017-12-31T01:51:26.144Z,15.8
2017-12-31T01:52:25.806Z,15.8
2017-12-31T01:53:25.870Z,18.8
2017-12-31T01:54:26.903Z,18.8
2017-12-31T01:55:25.880Z,18.8
2017-12-31T01:56:25.859Z,16.9
2017-12-31T01:57:26.115Z,16.9
2017-12-31T01:58:25.667Z,16.9
2017-12-31T01:59:25.667Z,15.2
2017-12-31T02:00:25.851Z,15.2
2017-12-31T02:01:25.875Z,15.2
2017-12-31T02:02:25.881Z,15.2
2017-12-31T02:03:25.657Z,15.2
2017-12-31T02:04:25.664Z,14.1
2017-12-31T02:05:25.950Z,14.1
2017-12-31T02:06:26.166Z,43.3
2017-12-31T02:07:25.652Z,43.3
2017-12-31T02:08:25.920Z,43.3
2017-12-31T02:09:25.904Z,12.7
2017-12-31T02:10:26.167Z,12.7
2017-12-31T02:11:25.996Z,49.4
2017-12-31T02:12:25.972Z,49.4
2017-12-31T02:13:25.719Z,49.4
2017-12-31T02:14:25.966Z,12.5
2017-12-31T02:15:25.942Z,12.5
2017-12-31T02:16:25.934Z,11.9
2017-12-31T02:17:26.274Z,11.9
2017-12-31T02:18:26.343Z,11.9
2017-12-31T02:19:25.776Z,18.8
2017-12-31T02:20:25.975Z,18.8
2017-12-31T02:21:25.786Z,11.3
2017-12-31T02:22:25.797Z,11.3
2017-12-31T02:23:25.741Z,11.3
2017-12-31T02:24:25.798Z,11.1
2017-12-31T02:25:25.949Z,11.1
2017-12-31T02:26:25.995Z,11.1
2017-12-31T02:27:25.996Z,38.6
2017-12-31T02:28:26.003Z,38.6
2017-12-31T02:29:25.876Z,38.0
2017-12-31T02:30:26.024Z,38.0
2017-12-31T02:31:25.787Z,38.0
2017-12-31T02:32:26.261Z,45.5
2017-12-31T02:33:25.998Z,45.5
2017-12-31T02:34:26.305Z,10.0
2017-12-31T02:35:26.278Z,10.0
2017-12-31T02:36:26.029Z,10.0
2017-12-31T02:37:26.282Z,10.2
2017-12-31T02:38:26.312Z,10.2
2017-12-31T02:40:26.017Z,9.1
2017-12-31T02:41:26.270Z,9.1
2017-12-31T02:42:25.985Z,9.1
2017-12-31T02:43:25.737Z,9.1
2017-12-31T02:44:26.258Z,9.1
2017-12-31T02:45:26.266Z,9.1
2017-12-31T02:46:26.293Z,9.1
2017-12-31T02:47:26.296Z,11.6
2017-12-31T02:48:25.978Z,11.6
2017-12-31T02:49:26.310Z,11.1
2017-12-31T02:50:26.016Z,11.1
2017-12-31T02:51:25.803Z,11.1
2017-12-31T02:52:26.309Z,8.3
2017-12-31T02:53:26.044Z,8.3
2017-12-31T02:55:25.830Z,6.1
2017-12-31T02:56:26.343Z,6.1
2017-12-31T02:57:26.079Z,11.1
2017-12-31T02:58:26.307Z,11.1
2017-12-31T02:59:26.103Z,11.1
2017-12-31T03:00:25.807Z,10.5
2017-12-31T03:01:25.828Z,10.5
2017-12-31T03:02:26.056Z,5.8
2017-12-31T03:03:25.792Z,5.8
2017-12-31T03:04:26.013Z,5.8
2017-12-31T03:05:26.330Z,8.6
2017-12-31T03:06:26.167Z,8.6
2017-12-31T03:07:26.018Z,6.9
2017-12-31T03:08:26.002Z,6.9
2017-12-31T03:09:26.069Z,6.9
2017-12-31T03:10:26.069Z,8.3
2017-12-31T03:11:26.032Z,8.3
2017-12-31T03:12:26.360Z,50.2
2017-12-31T03:13:26.100Z,50.2
2017-12-31T03:14:26.013Z,50.2
2017-12-31T03:15:26.050Z,7.2
2017-12-31T03:17:25.886Z,7.7
2017-12-31T03:18:26.357Z,7.7
2017-12-31T03:19:25.827Z,7.7
2017-12-31T03:20:26.065Z,7.7
2017-12-31T03:21:26.110Z,7.7
2017-12-31T03:22:26.037Z,7.7
2017-12-31T03:23:26.044Z,7.7
2017-12-31T03:24:26.031Z,7.7
2017-12-31T03:25:26.070Z,10.8
2017-12-31T03:26:25.867Z,10.8
2017-12-31T03:27:25.877Z,10.8
2017-12-31T03:28:26.071Z,8.0
2017-12-31T03:30:26.099Z,7.7
2017-12-31T03:31:25.912Z,7.7
2017-12-31T03:32:25.958Z,7.7
2017-12-31T03:33:26.345Z,6.3
2017-12-31T03:34:26.395Z,6.3
2017-12-31T03:35:26.113Z,6.6
2017-12-31T03:36:26.098Z,6.6
2017-12-31T03:37:26.098Z,6.6
2017-12-31T03:38:26.175Z,10.0
2017-12-31T03:39:26.390Z,10.0
2017-12-31T03:40:26.083Z,10.0
2017-12-31T03:41:26.120Z,10.0
2017-12-31T03:42:26.090Z,10.0
2017-12-31T03:43:26.365Z,7.2
2017-12-31T03:44:25.888Z,7.2
2017-12-31T03:45:26.084Z,8.6
2017-12-31T03:46:26.137Z,8.6
2017-12-31T03:47:26.125Z,8.6
2017-12-31T03:48:26.150Z,8.6
2017-12-31T03:49:26.391Z,8.6
2017-12-31T03:50:25.935Z,11.1
2017-12-31T03:51:26.102Z,11.1
2017-12-31T03:52:26.399Z,11.1
2017-12-31T03:53:26.115Z,8.0
2017-12-31T03:54:25.940Z,8.0
2017-12-31T03:55:26.138Z,10.8
2017-12-31T03:56:26.453Z,10.8
2017-12-31T03:57:26.137Z,10.8
2017-12-31T03:58:25.956Z,50.5
2017-12-31T03:59:26.157Z,50.5
2017-12-31T04:00:26.101Z,50.5
2017-12-31T04:02:26.125Z,42.2
2017-12-31T04:03:26.109Z,42.2
2017-12-31T04:04:26.436Z,42.2
2017-12-31T04:05:26.430Z,42.2
2017-12-31T04:07:26.135Z,8.6
2017-12-31T04:08:25.933Z,8.3
2017-12-31T04:09:26.183Z,8.3
2017-12-31T04:12:26.404Z,8.6
2017-12-31T04:13:26.150Z,9.1
2017-12-31T04:14:26.164Z,9.1
2017-12-31T04:15:26.212Z,9.1
2017-12-31T04:16:25.947Z,6.9
2017-12-31T04:17:25.971Z,6.9
2017-12-31T04:18:26.448Z,7.2
2017-12-31T04:20:26.095Z,7.2
2017-12-31T04:21:26.188Z,6.3
2017-12-31T04:22:26.494Z,6.3
2017-12-31T04:23:26.440Z,8.0
2017-12-31T04:24:26.179Z,8.0
2017-12-31T04:25:25.961Z,8.0
2017-12-31T04:26:25.982Z,7.7
2017-12-31T04:27:26.457Z,7.7
2017-12-31T04:28:26.165Z,7.7
2017-12-31T04:29:26.138Z,7.2
2017-12-31T04:30:25.976Z,7.2
2017-12-31T04:31:26.206Z,8.6
2017-12-31T04:32:26.215Z,8.6
2017-12-31T04:33:26.198Z,8.6
2017-12-31T04:34:26.197Z,9.4
2017-12-31T04:35:26.172Z,9.4
2017-12-31T04:36:26.290Z,8.3
2017-12-31T04:37:26.179Z,8.3
2017-12-31T04:38:26.511Z,8.3
2017-12-31T04:39:26.484Z,26.6
2017-12-31T04:40:26.183Z,26.6
2017-12-31T04:41:26.440Z,6.6
2017-12-31T04:42:26.068Z,6.6
2017-12-31T04:43:26.204Z,6.6
2017-12-31T04:44:26.024Z,6.6
2017-12-31T04:45:26.485Z,6.6
2017-12-31T04:46:26.520Z,6.3
2017-12-31T04:48:26.194Z,6.3
2017-12-31T04:49:26.202Z,7.5
2017-12-31T04:50:26.252Z,7.5
2017-12-31T04:51:26.227Z,7.7
2017-12-31T04:52:26.500Z,7.7
2017-12-31T04:53:26.044Z,7.7
2017-12-31T04:54:26.237Z,7.7
2017-12-31T04:55:26.224Z,7.7
2017-12-31T04:56:26.229Z,6.6
2017-12-31T04:57:26.680Z,6.6
2017-12-31T04:58:26.295Z,6.6
2017-12-31T04:59:26.049Z,6.3
2017-12-31T05:00:26.273Z,6.3
2017-12-31T05:01:26.228Z,6.3
2017-12-31T05:02:26.054Z,5.5
2017-12-31T05:03:26.552Z,5.5
2017-12-31T05:04:26.561Z,6.9
2017-12-31T05:05:26.269Z,6.9
2017-12-31T05:08:26.279Z,5.2
2017-12-31T05:09:26.289Z,8.3
2017-12-31T05:10:26.284Z,8.3
2017-12-31T05:11:26.523Z,8.3
2017-12-31T05:14:26.542Z,8.3
2017-12-31T05:16:26.111Z,8.3
2017-12-31T05:17:26.255Z,8.8
2017-12-31T05:18:26.513Z,8.8
2017-12-31T05:19:26.560Z,10.2
2017-12-31T05:20:26.300Z,10.2
2017-12-31T05:21:26.337Z,10.2
2017-12-31T05:22:26.331Z,8.8
2017-12-31T05:23:26.068Z,8.8
2017-12-31T05:24:26.333Z,8.8
2017-12-31T05:25:26.244Z,8.8
2017-12-31T05:26:26.576Z,8.8
2017-12-31T05:27:26.235Z,9.1
2017-12-31T05:28:26.108Z,9.1
2017-12-31T05:29:26.289Z,9.1
2017-12-31T05:30:26.116Z,8.0
2017-12-31T05:31:26.265Z,8.0
2017-12-31T05:32:26.351Z,8.0
2017-12-31T05:33:26.575Z,8.0
2017-12-31T05:34:26.451Z,8.0
2017-12-31T05:35:26.269Z,6.9
2017-12-31T05:36:26.564Z,6.9
2017-12-31T05:37:26.282Z,7.7
2017-12-31T05:38:26.602Z,7.7
2017-12-31T05:39:26.324Z,7.7
2017-12-31T05:40:26.309Z,8.3
2017-12-31T05:41:26.311Z,8.3
2017-12-31T05:42:26.119Z,3.8
2017-12-31T05:43:26.382Z,3.8
2017-12-31T05:44:26.305Z,3.8
2017-12-31T05:45:26.339Z,1.9
2017-12-31T05:46:26.315Z,1.9
2017-12-31T05:47:26.294Z,22.2
2017-12-31T05:48:26.130Z,22.2
2017-12-31T05:49:26.307Z,22.2
2017-12-31T05:50:26.332Z,4.4
2017-12-31T05:51:26.628Z,4.4
2017-12-31T05:52:26.590Z,6.1
2017-12-31T05:53:26.327Z,6.1
2017-12-31T05:54:26.142Z,6.1
2017-12-31T05:55:26.082Z,7.2
2017-12-31T05:56:26.329Z,7.2
2017-12-31T05:57:26.129Z,8.8
2017-12-31T05:58:26.112Z,8.8
2017-12-31T05:59:26.344Z,8.8
2017-12-31T06:00:26.303Z,10.2
2017-12-31T06:01:26.340Z,10.2
2017-12-31T06:02:26.340Z,10.2
2017-12-31T06:03:26.122Z,6.3
2017-12-31T06:04:26.607Z,6.3
2017-12-31T06:05:26.655Z,6.3
2017-12-31T06:06:26.332Z,6.3
2017-12-31T06:07:26.182Z,6.3
2017-12-31T06:08:26.363Z,8.3
2017-12-31T06:09:26.335Z,8.3
2017-12-31T06:10:26.159Z,10.0
2017-12-31T06:11:26.230Z,10.0
2017-12-31T06:12:26.114Z,10.0
2017-12-31T06:13:26.364Z,7.2
2017-12-31T06:14:26.342Z,7.2
2017-12-31T06:15:26.312Z,11.1
2017-12-31T06:16:26.356Z,11.1
2017-12-31T06:17:26.356Z,11.1
2017-12-31T06:18:26.140Z,7.5
2017-12-31T06:19:26.162Z,7.5
2017-12-31T06:20:26.636Z,6.3
2017-12-31T06:21:26.365Z,6.3
2017-12-31T06:22:26.630Z,6.3
2017-12-31T06:23:26.678Z,6.9
2017-12-31T06:24:26.657Z,6.9
2017-12-31T06:25:26.366Z,7.5
2017-12-31T06:26:26.394Z,7.5
2017-12-31T06:27:26.371Z,7.5
2017-12-31T06:28:26.352Z,7.7
2017-12-31T06:30:26.649Z,7.7
2017-12-31T06:31:26.393Z,7.5
2017-12-31T06:32:26.324Z,7.5
2017-12-31T06:33:26.383Z,43.0
2017-12-31T06:34:26.171Z,43.0
2017-12-31T06:35:26.693Z,43.0
2017-12-31T06:36:26.636Z,9.4
2017-12-31T06:37:26.680Z,9.4
2017-12-31T06:38:26.692Z,10.5
2017-12-31T06:39:26.153Z,10.5
2017-12-31T06:40:26.661Z,10.5
2017-12-31T06:41:26.672Z,10.5
2017-12-31T06:42:26.425Z,10.5
2017-12-31T06:43:26.201Z,7.5
2017-12-31T06:44:26.371Z,7.5
2017-12-31T06:45:26.164Z,7.5
2017-12-31T06:46:26.704Z,7.5
2017-12-31T06:47:26.398Z,7.5
2017-12-31T06:48:26.525Z,8.3
2017-12-31T06:49:26.445Z,8.3
2017-12-31T06:50:26.190Z,8.3
2017-12-31T06:51:26.399Z,7.7
2017-12-31T06:52:26.380Z,7.7
2017-12-31T06:53:26.355Z,6.1
2017-12-31T06:54:26.681Z,6.1
2017-12-31T06:55:26.442Z,6.1
2017-12-31T06:56:26.723Z,6.1
2017-12-31T06:57:26.427Z,6.1
2017-12-31T06:58:26.404Z,7.5
2017-12-31T06:59:26.434Z,7.5
2017-12-31T07:00:26.690Z,7.5
2017-12-31T07:01:26.441Z,36.1
2017-12-31T07:02:26.413Z,36.1
2017-12-31T07:03:26.445Z,36.1
2017-12-31T07:04:26.196Z,6.9
2017-12-31T07:05:26.290Z,6.9
2017-12-31T07:06:26.555Z,8.8
2017-12-31T07:07:26.491Z,8.8
2017-12-31T07:08:26.468Z,8.8
2017-12-31T07:10:26.293Z,29.7
2017-12-31T07:11:26.303Z,5.8
2017-12-31T07:12:26.325Z,5.8
2017-12-31T07:13:26.632Z,5.8
2017-12-31T07:14:26.563Z,6.6
2017-12-31T07:15:26.683Z,6.6
2017-12-31T07:16:26.383Z,6.9
2017-12-31T07:17:26.525Z,6.9
2017-12-31T07:18:26.571Z,6.9
2017-12-31T07:19:26.521Z,4.1
2017-12-31T07:20:26.473Z,4.1
2017-12-31T07:21:26.330Z,5.8
2017-12-31T07:22:26.503Z,5.8
2017-12-31T07:23:26.798Z,5.8
2017-12-31T07:24:26.824Z,5.5
2017-12-31T07:25:26.611Z,5.5
2017-12-31T07:26:26.335Z,5.5
2017-12-31T07:27:26.484Z,5.5
2017-12-31T07:28:26.789Z,5.5
2017-12-31T07:29:26.547Z,7.2
2017-12-31T07:30:26.854Z,7.2
2017-12-31T07:31:26.823Z,7.2
2017-12-31T07:32:26.495Z,7.7
2017-12-31T07:33:26.849Z,7.7
2017-12-31T07:34:26.586Z,7.5
2017-12-31T07:35:26.571Z,7.5
2017-12-31T07:36:26.535Z,7.5
2017-12-31T07:37:26.521Z,30.0
2017-12-31T07:38:26.889Z,30.0
2017-12-31T07:39:26.798Z,10.8
2017-12-31T07:40:26.545Z,10.8
2017-12-31T07:41:26.621Z,10.8
2017-12-31T07:42:26.536Z,8.3
2017-12-31T07:43:26.589Z,8.3
2017-12-31T07:44:26.535Z,11.6
2017-12-31T07:45:26.864Z,11.6
2017-12-31T07:46:26.878Z,11.6
2017-12-31T07:48:26.600Z,7.7
2017-12-31T07:49:26.369Z,7.2
2017-12-31T07:50:26.342Z,7.2
2017-12-31T07:51:26.586Z,7.2
2017-12-31T07:52:26.819Z,7.2
2017-12-31T07:53:26.561Z,7.2
2017-12-31T07:54:26.367Z,30.5
2017-12-31T07:55:27.027Z,30.5
2017-12-31T07:56:26.499Z,30.5
2017-12-31T07:57:26.383Z,22.7
2017-12-31T07:59:26.581Z,28.0
2017-12-31T08:00:26.911Z,28.0
2017-12-31T08:01:26.888Z,28.0
2017-12-31T08:02:27.003Z,5.8
2017-12-31T08:03:26.600Z,5.8
2017-12-31T08:04:26.380Z,5.8
2017-12-31T08:05:26.534Z,4.7
2017-12-31T08:06:26.388Z,4.7
2017-12-31T08:07:26.863Z,4.7
2017-12-31T08:08:26.698Z,4.7
2017-12-31T08:10:26.601Z,6.1
2017-12-31T08:11:26.878Z,6.1
2017-12-31T08:12:26.573Z,5.5
2017-12-31T08:13:26.431Z,5.5
2017-12-31T08:14:26.647Z,5.5
2017-12-31T08:16:26.870Z,5.2
2017-12-31T08:17:26.367Z,4.4
2017-12-31T08:18:26.588Z,4.4
2017-12-31T08:19:26.637Z,4.4
2017-12-31T08:21:26.582Z,4.1
2017-12-31T08:22:26.421Z,4.7
2017-12-31T08:23:26.872Z,4.7
2017-12-31T08:24:26.540Z,4.7
2017-12-31T08:25:26.603Z,3.6
2017-12-31T08:26:26.398Z,3.6
2017-12-31T08:27:26.881Z,3.6
2017-12-31T08:28:26.574Z,3.6
2017-12-31T08:29:26.575Z,3.6
2017-12-31T08:31:26.888Z,5.8
2017-12-31T08:32:26.880Z,5.8
2017-12-31T08:33:26.850Z,5.5
2017-12-31T08:34:26.577Z,5.5
2017-12-31T08:35:26.601Z,4.7
2017-12-31T08:36:26.763Z,4.7
2017-12-31T08:37:26.666Z,4.7
2017-12-31T08:38:26.630Z,4.7
2017-12-31T08:39:26.520Z,4.7
2017-12-31T08:41:26.620Z,5.0
2017-12-31T08:42:26.422Z,5.0
2017-12-31T08:43:26.594Z,24.4
2017-12-31T08:44:26.603Z,24.4
2017-12-31T08:45:26.903Z,5.0
2017-12-31T08:46:26.922Z,5.0
2017-12-31T08:47:26.592Z,5.0
2017-12-31T08:48:26.408Z,5.0
2017-12-31T08:49:26.608Z,5.0
2017-12-31T08:50:26.697Z,6.3
2017-12-31T08:51:26.967Z,6.3
2017-12-31T08:52:26.657Z,6.3
2017-12-31T08:53:26.640Z,6.9
2017-12-31T08:56:26.951Z,3.8
2017-12-31T08:57:26.521Z,3.8
2017-12-31T08:58:26.650Z,4.7
2017-12-31T09:00:26.687Z,4.1
2017-12-31T09:01:26.709Z,4.1
2017-12-31T09:02:26.717Z,4.1
2017-12-31T09:03:26.671Z,6.1
2017-12-31T09:04:26.739Z,6.1
2017-12-31T09:05:26.771Z,6.1
2017-12-31T09:06:26.731Z,5.8
2017-12-31T09:07:26.673Z,5.8
2017-12-31T09:08:26.567Z,5.0
2017-12-31T09:09:26.678Z,5.0
2017-12-31T09:10:27.043Z,5.0
2017-12-31T09:11:26.990Z,6.6
2017-12-31T09:12:26.530Z,6.6
2017-12-31T09:13:26.737Z,4.4
2017-12-31T09:16:26.879Z,6.6
2017-12-31T09:17:26.659Z,6.6
2017-12-31T09:18:26.570Z,7.2
2017-12-31T09:20:27.042Z,7.2
2017-12-31T09:21:26.707Z,5.5
2017-12-31T09:22:26.762Z,5.5
2017-12-31T09:23:27.036Z,8.6
2017-12-31T09:24:27.054Z,8.6
2017-12-31T09:25:26.482Z,8.6
2017-12-31T09:26:27.007Z,24.1
2017-12-31T09:27:27.085Z,24.1
2017-12-31T09:28:27.044Z,24.1
2017-12-31T09:29:27.037Z,24.1
2017-12-31T09:30:26.730Z,24.1
2017-12-31T09:31:26.715Z,8.0
2017-12-31T09:32:27.054Z,8.0
2017-12-31T09:33:27.033Z,8.0
2017-12-31T09:34:26.760Z,9.1
2017-12-31T09:35:27.032Z,9.1
2017-12-31T09:36:26.561Z,7.7
2017-12-31T09:37:26.691Z,7.7
2017-12-31T09:38:26.793Z,7.7
2017-12-31T09:39:26.721Z,9.1
2017-12-31T09:40:26.600Z,9.1
2017-12-31T09:41:26.743Z,6.1
2017-12-31T09:42:26.767Z,6.1
2017-12-31T09:43:26.723Z,6.1
2017-12-31T09:44:26.571Z,5.2
2017-12-31T09:45:26.615Z,5.2
2017-12-31T09:46:27.093Z,6.6
2017-12-31T09:47:27.017Z,6.6
2017-12-31T09:48:26.769Z,6.6
2017-12-31T09:49:26.805Z,6.6
2017-12-31T09:50:26.717Z,6.6
2017-12-31T09:51:26.786Z,3.8
2017-12-31T09:52:26.795Z,3.8
2017-12-31T09:53:26.853Z,3.8
2017-12-31T09:54:26.804Z,4.7
2017-12-31T09:55:26.836Z,4.7
2017-12-31T09:56:27.108Z,4.4
2017-12-31T09:57:26.813Z,4.4
2017-12-31T09:59:26.771Z,6.3
2017-12-31T10:00:26.833Z,6.3
2017-12-31T10:01:27.097Z,5.8
2017-12-31T10:02:26.816Z,5.8
2017-12-31T10:03:26.806Z,5.8
2017-12-31T10:04:26.796Z,5.2
2017-12-31T10:05:26.807Z,5.2
2017-12-31T10:06:26.812Z,5.2
2017-12-31T10:07:26.805Z,5.2
2017-12-31T10:08:27.103Z,5.2
2017-12-31T10:09:26.583Z,5.2
2017-12-31T10:10:26.610Z,5.2
2017-12-31T10:11:26.560Z,5.2
2017-12-31T10:12:26.793Z,6.9
2017-12-31T10:14:26.814Z,29.1
2017-12-31T10:15:26.856Z,29.1
2017-12-31T10:16:27.155Z,29.1
2017-12-31T10:17:27.059Z,6.1
2017-12-31T10:18:26.597Z,6.1
2017-12-31T10:19:26.782Z,7.5
2017-12-31T10:20:26.620Z,7.5
2017-12-31T10:21:26.839Z,7.5
2017-12-31T10:22:26.561Z,7.7
2017-12-31T10:23:26.607Z,7.7
2017-12-31T10:24:26.792Z,8.6
2017-12-31T10:25:27.836Z,8.6
2017-12-31T10:26:26.596Z,8.6
2017-12-31T10:27:26.601Z,24.4
2017-12-31T10:29:26.774Z,7.2
2017-12-31T10:30:27.003Z,7.2
2017-12-31T10:31:27.210Z,7.2
2017-12-31T10:32:27.181Z,4.4
2017-12-31T10:33:26.954Z,4.4
2017-12-31T10:34:26.819Z,4.4
2017-12-31T10:35:26.685Z,26.3
2017-12-31T10:36:26.845Z,26.3
2017-12-31T10:37:28.000Z,22.7
2017-12-31T10:38:26.885Z,22.7
2017-12-31T10:39:26.629Z,22.7
2017-12-31T10:40:26.847Z,7.2
2017-12-31T10:41:26.826Z,7.2
2017-12-31T10:43:26.604Z,8.0
2017-12-31T10:44:28.286Z,8.0
2017-12-31T10:45:26.839Z,8.0
2017-12-31T10:46:26.887Z,8.0
2017-12-31T10:48:26.846Z,5.8
2017-12-31T10:51:26.657Z,5.8
2017-12-31T10:52:27.164Z,7.2
2017-12-31T10:53:27.139Z,7.2
2017-12-31T10:54:26.864Z,7.2
2017-12-31T10:56:26.634Z,5.2
2017-12-31T10:57:27.108Z,6.1
2017-12-31T10:58:26.840Z,6.1
2017-12-31T11:01:26.612Z,6.6
2017-12-31T11:02:27.192Z,6.6
2017-12-31T11:03:26.871Z,6.6
2017-12-31T11:05:26.967Z,6.6
2017-12-31T11:06:26.851Z,6.6
2017-12-31T11:07:26.984Z,6.6
2017-12-31T11:08:35.578Z,8.3
2017-12-31T11:09:27.436Z,8.3
2017-12-31T11:10:30.771Z,5.0
2017-12-31T11:12:27.129Z,5.0
2017-12-31T11:13:26.881Z,6.3
2017-12-31T11:14:26.964Z,6.3
2017-12-31T11:15:26.929Z,5.2
2017-12-31T11:16:26.663Z,5.2
2017-12-31T11:17:26.693Z,5.2
2017-12-31T11:18:26.667Z,6.6
2017-12-31T11:19:26.957Z,6.6
2017-12-31T11:20:26.881Z,8.0
2017-12-31T11:21:27.020Z,8.0
2017-12-31T11:22:26.928Z,8.0
2017-12-31T11:23:27.254Z,7.5
2017-12-31T11:24:27.037Z,7.5
2017-12-31T11:25:26.972Z,6.3
2017-12-31T11:26:26.838Z,6.3
2017-12-31T11:27:26.950Z,6.3
2017-12-31T11:28:26.998Z,9.1
2017-12-31T11:29:27.367Z,9.1
2017-12-31T11:30:26.979Z,9.1
2017-12-31T11:31:27.011Z,9.1
2017-12-31T11:32:26.809Z,9.1
2017-12-31T11:33:27.237Z,6.3
2017-12-31T11:35:27.283Z,6.3
2017-12-31T11:36:26.982Z,5.5
2017-12-31T11:37:26.845Z,5.5
2017-12-31T11:38:27.260Z,4.1
2017-12-31T11:39:26.991Z,4.1
2017-12-31T11:40:27.006Z,4.1
2017-12-31T11:41:26.932Z,5.2
2017-12-31T11:42:26.961Z,5.2
2017-12-31T11:43:26.940Z,4.7
2017-12-31T11:44:27.074Z,4.7
2017-12-31T11:45:26.938Z,4.7
2017-12-31T11:46:26.764Z,3.6
2017-12-31T11:47:26.924Z,3.6
2017-12-31T11:48:26.979Z,4.7
2017-12-31T11:49:26.954Z,4.7
2017-12-31T11:50:27.030Z,4.7
2017-12-31T11:51:28.855Z,4.4
2017-12-31T11:52:27.004Z,4.4
2017-12-31T11:53:27.320Z,22.7
2017-12-31T11:54:26.965Z,22.7
2017-12-31T11:55:26.997Z,22.7
2017-12-31T11:56:26.968Z,7.5
2017-12-31T11:57:26.966Z,7.5
2017-12-31T11:58:26.803Z,5.5
2017-12-31T11:59:27.261Z,5.5
2017-12-31T12:00:28.878Z,5.5
2017-12-31T12:01:29.354Z,5.5
2017-12-31T12:02:27.313Z,5.5
2017-12-31T12:03:27.346Z,8.3
2017-12-31T12:04:27.015Z,8.3
2017-12-31T12:05:27.281Z,8.3
2017-12-31T12:06:27.066Z,8.3
2017-12-31T12:07:27.311Z,8.3
2017-12-31T12:08:26.791Z,8.3
2017-12-31T12:09:27.012Z,8.0
2017-12-31T12:10:26.986Z,8.0
2017-12-31T12:13:26.825Z,8.0
2017-12-31T12:14:27.014Z,7.7
2017-12-31T12:15:26.986Z,7.7
2017-12-31T12:16:27.033Z,6.6
2017-12-31T12:19:27.022Z,6.3
2017-12-31T12:20:27.020Z,6.3
2017-12-31T12:21:27.138Z,23.6
2017-12-31T12:22:27.279Z,23.6
2017-12-31T12:23:27.286Z,23.6
2017-12-31T12:24:27.096Z,5.8
2017-12-31T12:25:28.930Z,5.8
2017-12-31T12:26:29.403Z,6.1
2017-12-31T12:27:27.043Z,6.1
2017-12-31T12:28:29.076Z,6.1
2017-12-31T12:29:27.053Z,6.6
2017-12-31T12:30:29.398Z,6.6
2017-12-31T12:31:27.005Z,8.3
2017-12-31T12:32:26.998Z,8.3
2017-12-31T12:33:27.327Z,8.3
2017-12-31T12:34:27.046Z,6.6
2017-12-31T12:35:26.837Z,6.6
2017-12-31T12:36:26.845Z,6.6
2017-12-31T12:37:26.856Z,5.2
2017-12-31T12:38:29.425Z,5.2
2017-12-31T12:40:26.792Z,6.3
2017-12-31T12:41:29.467Z,6.3
2017-12-31T12:42:27.285Z,9.1
2017-12-31T12:43:27.095Z,9.1
2017-12-31T12:44:26.990Z,6.1
2017-12-31T12:45:27.346Z,6.1
2017-12-31T12:46:27.022Z,6.1
2017-12-31T12:47:27.323Z,7.5
2017-12-31T12:48:27.068Z,7.5
2017-12-31T12:50:27.332Z,8.0
2017-12-31T12:51:26.837Z,8.0
2017-12-31T12:52:27.187Z,8.0
2017-12-31T12:53:29.072Z,8.0
2017-12-31T12:54:29.163Z,6.3
2017-12-31T12:55:27.907Z,6.3
2017-12-31T12:56:27.052Z,6.3
2017-12-31T12:57:27.037Z,6.1
2017-12-31T12:58:27.207Z,6.1
2017-12-31T12:59:29.402Z,8.0
2017-12-31T13:00:29.079Z,8.0
2017-12-31T13:01:27.355Z,8.0
2017-12-31T13:02:26.914Z,8.8
2017-12-31T13:03:27.412Z,8.8
2017-12-31T13:04:26.869Z,6.3
2017-12-31T13:05:27.335Z,6.3
2017-12-31T13:06:27.098Z,6.3
2017-12-31T13:07:27.106Z,10.8
2017-12-31T13:08:27.417Z,10.8
2017-12-31T13:09:29.227Z,10.8
2017-12-31T13:11:29.504Z,8.6
2017-12-31T13:12:29.413Z,9.1
2017-12-31T13:13:28.969Z,9.1
2017-12-31T13:15:29.159Z,9.7
2017-12-31T13:16:27.081Z,9.7
2017-12-31T13:17:27.087Z,10.2
2017-12-31T13:18:27.157Z,10.2
2017-12-31T13:19:27.127Z,10.2
2017-12-31T13:20:29.205Z,8.0
2017-12-31T13:21:27.155Z,8.0
2017-12-31T13:22:27.106Z,40.5
2017-12-31T13:23:27.106Z,40.5
2017-12-31T13:24:27.522Z,40.5
2017-12-31T13:25:27.124Z,9.1
2017-12-31T13:26:27.182Z,9.1
2017-12-31T13:27:27.110Z,10.5
2017-12-31T13:28:27.139Z,10.5
2017-12-31T13:29:29.228Z,10.5
2017-12-31T13:30:26.950Z,8.6
2017-12-31T13:31:29.034Z,8.6
2017-12-31T13:32:27.518Z,8.6
2017-12-31T13:33:27.177Z,8.6
2017-12-31T13:34:27.125Z,8.6
2017-12-31T13:35:27.025Z,9.4
2017-12-31T13:36:27.358Z,9.4
2017-12-31T13:38:27.115Z,5.0
2017-12-31T13:39:27.008Z,5.0
2017-12-31T13:40:26.953Z,7.5
2017-12-31T13:41:29.788Z,7.5
2017-12-31T13:42:27.122Z,7.5
2017-12-31T13:43:29.113Z,8.6
2017-12-31T13:45:27.138Z,7.7
2017-12-31T13:46:27.126Z,7.7
2017-12-31T13:48:27.174Z,8.6
2017-12-31T13:49:27.461Z,8.6
2017-12-31T13:50:27.445Z,7.5
2017-12-31T13:51:29.210Z,7.5
2017-12-31T13:52:29.546Z,7.5
2017-12-31T13:53:27.143Z,6.9
2017-12-31T13:54:29.052Z,6.9
2017-12-31T13:55:29.123Z,9.1
2017-12-31T13:56:29.234Z,9.1
2017-12-31T13:57:27.308Z,9.1
2017-12-31T13:58:27.619Z,31.9
2017-12-31T13:59:27.542Z,31.9
2017-12-31T14:01:27.225Z,7.2
2017-12-31T14:02:26.942Z,7.2
2017-12-31T14:03:27.019Z,7.5
2017-12-31T14:04:27.244Z,7.5
2017-12-31T14:05:27.195Z,6.3
2017-12-31T14:06:27.509Z,6.3
2017-12-31T14:07:27.222Z,6.3
2017-12-31T14:08:27.181Z,7.2
2017-12-31T14:09:29.139Z,7.2
2017-12-31T14:10:29.240Z,7.2
2017-12-31T14:11:27.183Z,6.9
2017-12-31T14:12:27.391Z,6.9
2017-12-31T14:13:29.277Z,6.9
2017-12-31T14:14:27.180Z,6.9
2017-12-31T14:15:27.218Z,6.9
2017-12-31T14:16:27.237Z,4.7
2017-12-31T14:17:27.518Z,4.7
2017-12-31T14:18:29.546Z,4.7
2017-12-31T14:19:27.195Z,4.7
2017-12-31T14:20:27.513Z,4.7
2017-12-31T14:21:27.235Z,3.6
2017-12-31T14:22:27.216Z,3.6
2017-12-31T14:23:27.061Z,2.7
2017-12-31T14:24:27.539Z,2.7
2017-12-31T14:25:29.135Z,2.7
2017-12-31T14:26:27.014Z,16.6
2017-12-31T14:27:29.578Z,16.6
2017-12-31T14:28:27.229Z,3.3
2017-12-31T14:29:27.066Z,3.3
2017-12-31T14:30:27.342Z,3.3
2017-12-31T14:31:29.316Z,2.5
2017-12-31T14:32:27.492Z,2.5
2017-12-31T14:33:27.282Z,8.3
2017-12-31T14:34:29.200Z,8.3
2017-12-31T14:35:27.536Z,8.3
2017-12-31T14:36:29.108Z,1.3
2017-12-31T14:37:29.337Z,1.3